Time;durP1;ratioP1;P1;durP2;ratioP2;P2;SDS_P1;SDS_P2;PMS_P1;PMS_P2;Temp;Humidity;BMP_temperature;BMP_pressure;BME280_temperature;BME280_humidity;BME280_pressure;Samples;Min_cycle;Max_cycle;Signal;HPM_P1;HPM_P2
2021/12/16 00:08:49;;;;;;;20.40;11.60;;;7.20;98.00;;;;;;5030918;28;20508;-72
2021/12/16 00:19:39;;;;;;;15.70;9.35;;;7.20;98.00;;;;;;5019068;28;20044;-73
2021/12/16 00:35:37;;;;;;;20.52;13.60;;;7.30;97.90;;;;;;4970589;28;20555;-72
2021/12/16 00:38:04;;;;;;;21.13;13.02;;;7.30;97.90;;;;;;4958811;28;20039;-72
2021/12/16 00:40:30;;;;;;;19.95;12.63;;;7.30;97.90;;;;;;4969671;28;20109;-73
2021/12/16 00:43:09;;;;;;;19.63;12.25;;;7.30;97.90;;;;;;4969434;28;20169;-72
2021/12/16 00:48:22;;;;;;;22.90;13.93;;;7.30;97.70;;;;;;4973231;28;20118;-72
2021/12/16 00:56:04;;;;;;;22.55;13.82;;;7.30;97.80;;;;;;4970314;28;20061;-72
2021/12/16 00:58:38;;;;;;;21.85;13.07;;;7.40;97.90;;;;;;4968829;28;20043;-72
2021/12/16 01:01:17;;;;;;;19.70;11.77;;;7.40;97.90;;;;;;4969505;28;20034;-72
2021/12/16 01:34:04;;;;;;;27.15;14.27;;;7.40;97.80;;;;;;5028473;28;20109;-72
2021/12/16 01:57:33;;;;;;;26.20;13.65;;;7.40;97.70;;;;;;5026401;28;20048;-72
2021/12/16 02:00:07;;;;;;;20.83;12.77;;;7.40;97.60;;;;;;5026357;28;20042;-72
2021/12/16 02:02:44;;;;;;;29.30;14.82;;;7.40;97.70;;;;;;5024934;28;20440;-72
2021/12/16 02:06:00;;;;;;;17.98;11.18;;;7.40;97.60;;;;;;5021117;28;20042;-72
2021/12/16 02:08:26;;;;;;;22.70;13.05;;;7.30;97.60;;;;;;5023663;28;20076;-72
2021/12/16 02:27:45;;;;;;;27.55;14.25;;;7.30;97.70;;;;;;4977660;28;20146;-72
2021/12/16 02:33:22;;;;;;;29.55;14.70;;;7.30;97.70;;;;;;4933451;29;20050;-72
2021/12/16 02:36:00;;;;;;;25.00;13.88;;;7.30;97.70;;;;;;4929901;29;20122;-73
2021/12/16 02:38:30;;;;;;;27.42;14.70;;;7.30;97.80;;;;;;4929752;29;20040;-72
2021/12/16 02:40:56;;;;;;;30.77;15.38;;;7.30;97.80;;;;;;4929376;29;20396;-73
2021/12/16 02:48:54;;;;;;;25.67;13.23;;;7.30;97.70;;;;;;4987630;28;20119;-72
2021/12/16 02:51:24;;;;;;;25.05;13.75;;;7.30;97.60;;;;;;5028655;28;20045;-72
2021/12/16 02:54:00;;;;;;;21.17;12.00;;;7.30;97.70;;;;;;5021937;28;20075;-73
2021/12/16 02:56:27;;;;;;;24.77;12.52;;;7.30;97.60;;;;;;5043644;28;20064;-72
2021/12/16 02:58:54;;;;;;;24.05;12.55;;;7.30;97.60;;;;;;5041054;28;20033;-72
2021/12/16 03:01:30;;;;;;;20.27;11.80;;;7.30;97.70;;;;;;5035897;28;20079;-72
2021/12/16 03:03:58;;;;;;;24.55;13.90;;;7.30;97.70;;;;;;5044504;28;20037;-73
2021/12/16 03:06:25;;;;;;;28.92;15.32;;;7.30;97.70;;;;;;5040609;28;20560;-73
2021/12/16 03:08:52;;;;;;;26.50;14.13;;;7.30;97.70;;;;;;5039018;28;20037;-72
2021/12/16 03:11:32;;;;;;;29.30;15.07;;;7.30;97.80;;;;;;5046047;28;20114;-72
2021/12/16 03:16:48;;;;;;;20.65;11.90;;;7.30;97.70;;;;;;5035325;28;20284;-72
2021/12/16 03:19:34;;;;;;;24.30;13.15;;;7.40;97.70;;;;;;5049610;28;20124;-72
2021/12/16 03:22:02;;;;;;;28.42;15.20;;;7.30;97.70;;;;;;5040162;28;20025;-72
2021/12/16 03:27:35;;;;;;;27.00;13.55;;;7.30;97.70;;;;;;5032430;28;20112;-72
2021/12/16 03:35:38;;;;;;;27.60;14.60;;;7.40;97.80;;;;;;5032343;28;20025;-72
2021/12/16 03:38:08;;;;;;;25.77;15.20;;;7.40;97.90;;;;;;5029455;28;20068;-73
2021/12/16 03:40:35;;;;;;;25.75;14.07;;;7.40;97.80;;;;;;5028993;28;20453;-72
2021/12/16 03:43:03;;;;;;;28.08;15.02;;;7.40;97.80;;;;;;5030977;28;20029;-72
2021/12/16 03:48:43;;;;;;;21.35;12.20;;;7.40;97.70;;;;;;5028502;28;20107;-73
2021/12/16 03:51:22;;;;;;;22.90;10.85;;;7.40;97.70;;;;;;5029452;28;20120;-73
2021/12/16 03:53:50;;;;;;;21.25;11.32;;;7.40;97.70;;;;;;5032452;28;20029;-72
2021/12/16 03:56:17;;;;;;;20.10;11.70;;;7.40;97.70;;;;;;5029023;28;20021;-73
2021/12/16 03:58:44;;;;;;;22.70;12.52;;;7.40;97.70;;;;;;5029015;28;20021;-72
2021/12/16 04:01:16;;;;;;;17.50;9.95;;;7.40;97.70;;;;;;5029111;28;20100;-73
2021/12/16 04:03:42;;;;;;;25.00;13.20;;;7.40;97.70;;;;;;5031608;28;20033;-72
2021/12/16 04:06:10;;;;;;;20.45;11.32;;;7.40;97.70;;;;;;5032988;28;20108;-72
2021/12/16 04:08:36;;;;;;;22.08;12.63;;;7.50;97.80;;;;;;5028671;28;20564;-72
2021/12/16 04:11:22;;;;;;;21.23;11.32;;;7.40;97.70;;;;;;5031277;28;20412;-72
2021/12/16 04:13:57;;;;;;;21.85;11.35;;;7.50;97.80;;;;;;5031242;28;20182;-72
2021/12/16 04:16:28;;;;;;;20.67;12.57;;;7.50;97.70;;;;;;5027291;28;20025;-72
2021/12/16 04:18:56;;;;;;;21.17;12.65;;;7.50;97.70;;;;;;5026570;28;20076;-73
2021/12/16 04:21:25;;;;;;;26.98;14.30;;;7.50;97.70;;;;;;5031446;28;20040;-72
2021/12/16 04:23:54;;;;;;;22.50;11.65;;;7.60;97.80;;;;;;5030402;28;20039;-73
2021/12/16 04:26:21;;;;;;;27.63;14.40;;;7.60;97.80;;;;;;5028711;28;20038;-72
2021/12/16 04:28:47;;;;;;;21.25;11.32;;;7.60;97.70;;;;;;5029997;28;20084;-72
2021/12/16 04:31:13;;;;;;;20.90;11.25;;;7.60;97.60;;;;;;5028295;28;20029;-72
2021/12/16 04:33:39;;;;;;;20.83;11.05;;;7.60;97.60;;;;;;5030648;28;20489;-72
2021/12/16 04:36:10;;;;;;;21.08;12.15;;;7.60;97.50;;;;;;5032228;28;20034;-73
2021/12/16 04:38:37;;;;;;;19.88;11.20;;;7.60;97.40;;;;;;5029615;28;20041;-72
2021/12/16 04:41:07;;;;;;;21.67;13.00;;;7.70;97.50;;;;;;5028894;28;20131;-72
2021/12/16 04:43:39;;;;;;;22.15;12.10;;;7.70;97.50;;;;;;5030369;28;20026;-73
2021/12/16 04:46:10;;;;;;;23.05;14.10;;;7.70;97.50;;;;;;5027817;28;20025;-72
2021/12/16 04:48:38;;;;;;;22.45;13.27;;;7.70;97.40;;;;;;5030299;28;20144;-72
2021/12/16 04:51:05;;;;;;;23.20;14.27;;;7.70;97.50;;;;;;5021114;28;20072;-73
2021/12/16 04:53:31;;;;;;;22.75;13.48;;;7.70;97.50;;;;;;5026896;28;20033;-72
2021/12/16 04:55:57;;;;;;;22.70;10.88;;;7.70;97.40;;;;;;5029058;28;20051;-72
2021/12/16 04:58:23;;;;;;;22.70;13.48;;;7.70;97.30;;;;;;5029442;28;20101;-72
2021/12/16 05:00:49;;;;;;;22.65;13.57;;;7.70;97.30;;;;;;5029763;28;20163;-73
2021/12/16 05:03:15;;;;;;;22.77;12.20;;;7.80;97.30;;;;;;5031958;28;20112;-72
2021/12/16 05:05:41;;;;;;;22.00;13.50;;;7.80;97.30;;;;;;5030748;28;20610;-72
2021/12/16 05:08:07;;;;;;;22.05;13.35;;;7.80;97.40;;;;;;5027424;28;20037;-72
2021/12/16 05:10:33;;;;;;;20.17;11.93;;;7.80;97.40;;;;;;5027281;28;20074;-72
2021/12/16 05:13:00;;;;;;;14.82;9.02;;;7.80;97.50;;;;;;5028240;28;20097;-72
2021/12/16 05:15:29;;;;;;;15.57;9.60;;;7.80;97.50;;;;;;5030828;28;20021;-72
2021/12/16 05:17:58;;;;;;;17.08;9.93;;;7.80;97.10;;;;;;5031875;28;20060;-72
2021/12/16 05:20:28;;;;;;;16.80;9.27;;;7.80;97.00;;;;;;5031809;28;20041;-72
2021/12/16 05:28:09;;;;;;;19.95;12.02;;;7.80;97.10;;;;;;5028838;28;20504;-72
2021/12/16 05:30:36;;;;;;;20.02;11.65;;;7.80;97.10;;;;;;5028991;28;20017;-72
2021/12/16 05:33:03;;;;;;;20.90;12.77;;;7.80;97.00;;;;;;5031048;28;20029;-71
2021/12/16 05:35:29;;;;;;;18.95;11.48;;;7.80;97.20;;;;;;5035177;28;20021;-72
2021/12/16 05:37:55;;;;;;;20.27;12.25;;;7.80;97.20;;;;;;5025638;28;20033;-73
2021/12/16 05:40:26;;;;;;;19.33;12.45;;;7.90;97.10;;;;;;5029885;28;20033;-74
2021/12/16 05:42:54;;;;;;;19.13;12.40;;;7.90;97.20;;;;;;5035889;28;20037;-73
2021/12/16 05:45:23;;;;;;;16.58;9.77;;;7.90;97.10;;;;;;5032654;28;20023;-74
2021/12/16 05:47:50;;;;;;;20.80;12.00;;;7.90;97.40;;;;;;5029306;28;20041;-73
2021/12/16 05:50:16;;;;;;;19.63;11.45;;;7.90;97.00;;;;;;5035166;28;20104;-74
2021/12/16 05:52:43;;;;;;;26.38;13.90;;;7.90;97.10;;;;;;5027943;28;20018;-73
2021/12/16 05:55:13;;;;;;;20.00;12.88;;;7.90;97.10;;;;;;5030950;28;20018;-75
2021/12/16 05:57:41;;;;;;;22.77;13.88;;;7.90;97.10;;;;;;5030661;28;20034;-74
2021/12/16 06:00:15;;;;;;;22.90;12.75;;;7.90;97.10;;;;;;5034442;28;20029;-76
2021/12/16 06:02:42;;;;;;;24.67;14.52;;;7.90;97.10;;;;;;5024936;28;20033;-75
2021/12/16 06:05:08;;;;;;;24.45;13.95;;;7.90;97.10;;;;;;5027344;28;20036;-73
2021/12/16 06:07:34;;;;;;;23.75;12.73;;;8.00;97.10;;;;;;5025964;28;20041;-74
2021/12/16 06:10:00;;;;;;;20.60;12.07;;;8.00;97.10;;;;;;5030989;28;20032;-72
2021/12/16 06:12:27;;;;;;;17.58;10.05;;;7.90;97.10;;;;;;5029037;28;20112;-73
2021/12/16 06:15:17;;;;;;;21.23;11.70;;;8.00;96.90;;;;;;5026630;28;20056;-73
2021/12/16 06:28:22;;;;;;;22.80;11.93;;;8.00;97.10;;;;;;5030886;28;20044;-74
2021/12/16 06:30:48;;;;;;;22.67;10.95;;;8.00;97.00;;;;;;5038857;28;20401;-76
2021/12/16 06:33:16;;;;;;;23.00;11.32;;;8.00;96.90;;;;;;5029815;28;20400;-74
2021/12/16 06:35:43;;;;;;;24.67;12.18;;;8.00;97.00;;;;;;5026432;28;20014;-73
2021/12/16 06:38:09;;;;;;;22.58;10.77;;;8.00;96.90;;;;;;5027826;28;20053;-73
2021/12/16 06:40:35;;;;;;;16.98;8.68;;;8.00;97.00;;;;;;5028614;28;20041;-73
2021/12/16 06:43:04;;;;;;;20.92;10.70;;;8.00;97.00;;;;;;5026031;28;20064;-73
2021/12/16 06:45:34;;;;;;;26.40;12.43;;;8.00;97.00;;;;;;5027807;28;20028;-73
2021/12/16 06:48:05;;;;;;;21.45;10.48;;;8.00;97.00;;;;;;5028967;28;20045;-73
2021/12/16 06:50:47;;;;;;;18.38;9.45;;;8.00;97.00;;;;;;5027190;28;20718;-73
2021/12/16 06:53:21;;;;;;;19.92;9.85;;;8.00;97.00;;;;;;5028697;28;20506;-73
2021/12/16 06:56:00;;;;;;;19.48;9.43;;;8.00;97.00;;;;;;5029928;28;20033;-73
2021/12/16 07:01:04;;;;;;;18.10;9.60;;;8.00;97.10;;;;;;5039923;28;20026;-73
2021/12/16 07:03:40;;;;;;;26.45;12.63;;;8.00;97.20;;;;;;5028572;28;20022;-73
2021/12/16 07:06:05;;;;;;;26.45;13.07;;;8.00;97.20;;;;;;5029106;28;20061;-72
2021/12/16 07:08:32;;;;;;;21.65;10.98;;;8.00;97.10;;;;;;5026068;28;20083;-73
2021/12/16 07:10:58;;;;;;;24.98;11.90;;;8.00;97.10;;;;;;5026229;28;20021;-73
2021/12/16 07:13:36;;;;;;;17.00;10.30;;;8.00;97.00;;;;;;5025781;28;20036;-72
2021/12/16 07:16:02;;;;;;;18.63;9.32;;;8.00;96.90;;;;;;5027164;28;20351;-72
2021/12/16 07:18:28;;;;;;;19.83;10.02;;;8.00;96.80;;;;;;5036748;28;20426;-72
2021/12/16 07:20:54;;;;;;;23.33;13.80;;;8.00;96.70;;;;;;5027518;28;20064;-72
2021/12/16 07:23:21;;;;;;;22.55;12.80;;;8.00;96.80;;;;;;5027188;28;20057;-72
2021/12/16 07:25:47;;;;;;;24.55;11.90;;;8.00;96.80;;;;;;5027236;28;20040;-72
2021/12/16 07:28:13;;;;;;;20.80;10.95;;;8.00;96.90;;;;;;5025787;28;20033;-72
2021/12/16 07:30:41;;;;;;;20.70;10.55;;;8.00;96.90;;;;;;5026982;28;20032;-72
2021/12/16 07:33:07;;;;;;;21.17;10.55;;;8.00;96.90;;;;;;5029262;28;20017;-72
2021/12/16 07:35:34;;;;;;;16.38;8.52;;;8.00;97.00;;;;;;5026929;28;20121;-72
2021/12/16 07:38:00;;;;;;;18.40;10.30;;;8.00;97.00;;;;;;5025218;28;20033;-72
2021/12/16 07:40:27;;;;;;;21.02;11.23;;;8.00;96.90;;;;;;5035364;28;20080;-72
2021/12/16 07:45:32;;;;;;;16.98;8.50;;;7.90;96.80;;;;;;5030114;28;20020;-72
2021/12/16 07:47:59;;;;;;;16.02;9.30;;;7.90;96.80;;;;;;5026544;28;20500;-72
2021/12/16 07:50:25;;;;;;;16.50;9.60;;;7.90;96.70;;;;;;5026446;28;20029;-72
2021/12/16 07:52:51;;;;;;;15.82;8.55;;;7.90;96.70;;;;;;5035472;28;20035;-73
2021/12/16 07:55:28;;;;;;;19.00;10.57;;;7.90;96.70;;;;;;5031316;28;20018;-72
2021/12/16 07:57:55;;;;;;;20.85;10.43;;;7.90;96.60;;;;;;5026862;28;20022;-72
2021/12/16 08:00:26;;;;;;;15.00;8.88;;;7.90;96.60;;;;;;5033232;28;20030;-72
2021/12/16 08:02:56;;;;;;;13.65;8.25;;;7.90;96.60;;;;;;5032181;28;20034;-72
2021/12/16 08:05:25;;;;;;;17.80;10.48;;;7.80;96.50;;;;;;5028641;28;20124;-72
2021/12/16 08:07:52;;;;;;;13.15;7.20;;;7.90;96.30;;;;;;5029619;28;20072;-72
2021/12/16 08:10:20;;;;;;;19.60;9.18;;;7.80;96.00;;;;;;5027751;28;20638;-72
2021/12/16 08:12:46;;;;;;;14.77;8.10;;;7.90;96.00;;;;;;5013897;28;20026;-71
2021/12/16 08:15:15;;;;;;;12.63;6.78;;;7.90;95.80;;;;;;5028532;28;20029;-72
2021/12/16 08:17:42;;;;;;;12.07;7.28;;;7.90;95.60;;;;;;5029542;28;20041;-71
2021/12/16 08:20:10;;;;;;;11.50;6.22;;;7.90;95.50;;;;;;5028818;28;20455;-71
2021/12/16 08:22:36;;;;;;;13.40;8.05;;;8.00;95.30;;;;;;5030261;28;20029;-72
2021/12/16 08:25:03;;;;;;;11.73;7.20;;;8.00;95.20;;;;;;5037587;28;20036;-72
2021/12/16 08:27:30;;;;;;;14.77;6.95;;;8.00;95.00;;;;;;5037066;28;20477;-70
2021/12/16 08:29:55;;;;;;;17.05;7.72;;;8.10;94.90;;;;;;5030286;28;20512;-71
2021/12/16 08:32:23;;;;;;;10.35;6.60;;;8.10;94.70;;;;;;5033747;28;20128;-71
2021/12/16 08:34:48;;;;;;;12.18;7.68;;;8.10;94.50;;;;;;5028637;28;20425;-71
2021/12/16 08:37:14;;;;;;;9.55;6.30;;;8.20;94.60;;;;;;5030002;28;20026;-72
2021/12/16 08:39:41;;;;;;;11.00;6.88;;;8.20;94.40;;;;;;5029694;28;20034;-70
2021/12/16 08:42:09;;;;;;;10.75;6.15;;;8.20;94.30;;;;;;5031609;28;20451;-70
2021/12/16 08:44:35;;;;;;;12.30;7.20;;;8.30;94.30;;;;;;5028710;28;20021;-72
2021/12/16 08:47:09;;;;;;;11.63;6.40;;;8.30;94.10;;;;;;5023922;28;20072;-71
2021/12/16 08:49:37;;;;;;;8.77;5.38;;;8.30;94.20;;;;;;5026929;28;20023;-71
2021/12/16 08:52:09;;;;;;;9.30;5.57;;;8.40;94.10;;;;;;5028074;28;20022;-71
2021/12/16 08:54:35;;;;;;;10.35;6.28;;;8.40;93.50;;;;;;5025710;28;20028;-71
2021/12/16 08:57:01;;;;;;;11.23;6.57;;;8.40;93.50;;;;;;5027149;28;20038;-72
2021/12/16 08:59:28;;;;;;;11.32;6.22;;;8.40;93.60;;;;;;5027520;28;20026;-72
2021/12/16 09:01:56;;;;;;;10.30;6.25;;;8.50;93.60;;;;;;5030818;28;20079;-72
2021/12/16 09:04:23;;;;;;;11.95;6.53;;;8.50;93.30;;;;;;5024642;28;20022;-72
2021/12/16 09:06:53;;;;;;;11.50;7.32;;;8.50;93.20;;;;;;5027516;28;20030;-72
2021/12/16 09:09:21;;;;;;;11.23;6.88;;;8.50;93.20;;;;;;5032291;28;20555;-72
2021/12/16 09:12:09;;;;;;;9.65;6.00;;;8.50;93.10;;;;;;5030138;28;20064;-72
2021/12/16 09:14:35;;;;;;;11.13;5.75;;;8.60;93.10;;;;;;5027315;28;20108;-72
2021/12/16 09:17:04;;;;;;;10.63;6.60;;;8.60;93.10;;;;;;5029445;28;20029;-72
2021/12/16 09:19:30;;;;;;;12.18;6.88;;;8.60;92.70;;;;;;5026640;28;20029;-72
2021/12/16 09:21:56;;;;;;;12.02;6.78;;;8.70;92.60;;;;;;5020782;28;20033;-72
2021/12/16 09:24:22;;;;;;;9.93;6.03;;;8.70;92.60;;;;;;5021186;28;20072;-72
2021/12/16 09:26:48;;;;;;;8.40;5.60;;;8.70;92.30;;;;;;5028181;28;20026;-72
2021/12/16 09:29:15;;;;;;;13.48;5.88;;;8.80;92.20;;;;;;5026709;28;20109;-72
2021/12/16 09:31:41;;;;;;;10.48;6.22;;;8.80;92.10;;;;;;5027562;28;20032;-72
2021/12/16 09:34:08;;;;;;;10.18;6.38;;;8.80;92.00;;;;;;5027621;28;20022;-72
2021/12/16 09:36:39;;;;;;;10.65;6.80;;;8.90;92.30;;;;;;5015868;28;20496;-72
2021/12/16 09:39:08;;;;;;;8.20;5.20;;;8.90;91.90;;;;;;5018516;28;20026;-72
2021/12/16 09:41:35;;;;;;;9.20;5.72;;;9.00;91.40;;;;;;5027512;28;20041;-72
2021/12/16 09:44:01;;;;;;;8.75;5.72;;;9.00;91.40;;;;;;5026176;28;20044;-72
2021/12/16 09:46:28;;;;;;;8.48;5.07;;;9.00;91.20;;;;;;5026462;28;20037;-72
2021/12/16 09:48:56;;;;;;;9.50;5.55;;;9.00;91.20;;;;;;5026286;28;20428;-72
2021/12/16 09:51:25;;;;;;;9.23;5.88;;;9.10;91.00;;;;;;5029467;28;20033;-72
2021/12/16 09:53:57;;;;;;;12.20;5.65;;;9.10;90.80;;;;;;5028613;28;20060;-72
2021/12/16 09:56:26;;;;;;;10.38;5.95;;;9.20;90.90;;;;;;5028407;28;20087;-72
2021/12/16 09:58:53;;;;;;;8.45;5.22;;;9.20;91.00;;;;;;5026557;28;20130;-72
2021/12/16 10:01:20;;;;;;;10.18;6.03;;;9.20;90.70;;;;;;5026536;28;20028;-72
2021/12/16 10:03:50;;;;;;;9.90;6.05;;;9.30;90.60;;;;;;5025485;28;20116;-72
2021/12/16 10:06:17;;;;;;;9.00;5.97;;;9.30;90.60;;;;;;5027118;28;20025;-72
2021/12/16 10:08:44;;;;;;;9.65;6.55;;;9.30;90.50;;;;;;5025099;28;20396;-72
2021/12/16 10:11:10;;;;;;;11.43;6.90;;;9.40;90.50;;;;;;5030511;28;20022;-72
2021/12/16 10:19:07;;;;;;;10.55;6.50;;;9.50;90.30;;;;;;5010286;28;20088;-73
2021/12/16 10:21:33;;;;;;;12.32;6.72;;;9.60;90.60;;;;;;4998826;28;20046;-72
2021/12/16 10:23:59;;;;;;;9.80;6.30;;;9.70;90.40;;;;;;5008594;28;20117;-72
2021/12/16 10:26:26;;;;;;;8.40;5.97;;;9.70;90.10;;;;;;5007605;28;20033;-72
2021/12/16 10:28:56;;;;;;;9.90;5.38;;;9.70;89.50;;;;;;5006675;28;20100;-73
2021/12/16 10:31:37;;;;;;;11.13;5.32;;;9.70;88.70;;;;;;5004746;28;20037;-73
2021/12/16 10:34:07;;;;;;;9.35;5.15;;;9.80;88.60;;;;;;5007234;28;20038;-72
2021/12/16 10:36:40;;;;;;;8.07;5.20;;;9.80;88.00;;;;;;5002051;28;20030;-71
2021/12/16 10:39:12;;;;;;;7.32;4.63;;;9.90;88.50;;;;;;5007965;28;20033;-72
2021/12/16 10:41:39;;;;;;;8.85;5.97;;;9.80;87.20;;;;;;5006988;28;20148;-72
2021/12/16 10:44:22;;;;;;;8.43;5.50;;;9.80;87.70;;;;;;4984655;28;20031;-72
2021/12/16 10:47:00;;;;;;;10.50;5.55;;;9.90;87.60;;;;;;4998006;28;20072;-72
2021/12/16 10:49:33;;;;;;;7.95;5.03;;;10.00;87.20;;;;;;5005665;28;20026;-72
2021/12/16 10:52:02;;;;;;;8.68;5.35;;;10.00;86.70;;;;;;5005282;28;20029;-72
2021/12/16 10:54:34;;;;;;;8.23;5.80;;;10.10;87.00;;;;;;5024342;28;20074;-72
2021/12/16 10:57:16;;;;;;;11.07;9.98;;;10.30;86.20;;;;;;5028302;28;20029;-72
2021/12/16 10:59:47;;;;;;;11.35;10.25;;;13.10;82.00;;;;;;5026723;28;20112;-72
2021/12/16 11:02:25;;;;;;;10.40;9.40;;;16.40;65.30;;;;;;5026416;28;20056;-71
2021/12/16 11:05:17;;;;;;;10.20;9.20;;;18.20;58.10;;;;;;5026079;28;20500;-72
2021/12/16 11:07:48;;;;;;;9.55;8.60;;;19.90;53.90;;;;;;5028153;28;20076;-72
2021/12/16 11:10:21;;;;;;;9.52;8.52;;;21.40;49.20;;;;;;5025807;28;20064;-73
2021/12/16 11:13:02;;;;;;;8.38;7.50;;;22.60;48.00;;;;;;5011365;28;20029;-74
2021/12/16 11:15:32;;;;;;;;;;;23.50;44.20;;;;;;5026311;28;20101;-73
2021/12/16 11:18:20;;;;;;;11.68;9.93;;;23.80;42.60;;;;;;5026429;28;19921;-73
2021/12/16 11:21:05;;;;;;;9.05;8.13;;;24.30;41.50;;;;;;5026994;28;20021;-74
2021/12/16 11:23:40;;;;;;;11.35;10.40;;;24.40;40.70;;;;;;5026070;28;20038;-74
2021/12/16 11:26:10;;;;;;;11.98;10.88;;;24.70;39.60;;;;;;5036020;28;20024;-74
2021/12/16 11:28:44;;;;;;;8.52;5.90;;;24.60;40.30;;;;;;5039729;28;20099;-74
2021/12/16 11:31:13;;;;;;;8.52;5.05;;;23.30;44.70;;;;;;5032046;28;20025;-74
2021/12/16 11:33:47;;;;;;;15.02;13.75;;;23.00;42.40;;;;;;5042624;28;20037;-74
2021/12/16 11:36:16;;;;;;;9.43;8.02;;;24.30;40.80;;;;;;5034485;28;20033;-74
2021/12/16 11:38:50;;;;;;;10.73;9.57;;;24.30;40.60;;;;;;5029592;28;20037;-73
2021/12/16 11:41:21;;;;;;;6.90;4.75;;;24.50;41.90;;;;;;5029519;28;20040;-74
2021/12/16 11:43:58;;;;;;;8.90;5.03;;;22.30;40.70;;;;;;5029889;28;20037;-75
2021/12/16 11:46:45;;;;;;;7.97;7.18;;;20.60;44.70;;;;;;5028961;28;20061;-74
2021/12/16 11:49:14;;;;;;;9.00;4.88;;;20.90;47.90;;;;;;5028691;28;20408;-74
2021/12/16 11:51:57;;;;;;;6.13;3.63;;;19.50;48.20;;;;;;5031140;28;20116;-74
2021/12/16 11:54:27;;;;;;;5.53;3.88;;;18.60;49.10;;;;;;5028628;28;20100;-74
2021/12/16 11:56:59;;;;;;;6.65;3.83;;;17.90;54.00;;;;;;5030777;28;20453;-73
2021/12/16 11:59:35;;;;;;;4.95;2.92;;;17.00;53.50;;;;;;5021241;28;20060;-73
2021/12/16 12:02:02;;;;;;;6.63;4.43;;;16.20;55.80;;;;;;5022470;28;20067;-72
2021/12/16 12:04:33;;;;;;;7.65;3.90;;;15.60;59.10;;;;;;5027527;28;20028;-73
2021/12/16 12:07:00;;;;;;;6.93;3.75;;;15.20;61.30;;;;;;5026880;28;20029;-74
2021/12/16 12:09:53;;;;;;;8.00;3.65;;;15.00;62.60;;;;;;5031609;28;20029;-73
2021/12/16 12:12:48;;;;;;;7.18;4.63;;;14.70;62.60;;;;;;5028964;28;20060;-74
2021/12/16 12:15:16;;;;;;;9.13;5.45;;;14.40;64.40;;;;;;5028721;28;20017;-74
2021/12/16 12:17:52;;;;;;;5.90;3.55;;;14.00;65.80;;;;;;5028764;28;20025;-74
2021/12/16 12:20:24;;;;;;;6.25;4.00;;;13.60;66.90;;;;;;5028924;28;20551;-73
2021/12/16 12:22:51;;;;;;;6.25;3.60;;;13.40;68.90;;;;;;5028946;28;20075;-73
2021/12/16 12:25:17;;;;;;;6.40;3.60;;;13.40;69.30;;;;;;5029085;28;20116;-73
2021/12/16 12:27:43;;;;;;;7.40;3.60;;;13.10;68.20;;;;;;5029234;28;20065;-73
2021/12/16 12:30:10;;;;;;;7.03;3.90;;;12.90;69.70;;;;;;5032491;28;20025;-73
2021/12/16 12:32:49;;;;;;;5.63;3.00;;;12.80;71.00;;;;;;5028384;28;20025;-73
2021/12/16 12:35:28;;;;;;;5.70;3.80;;;12.70;71.20;;;;;;5027818;28;20021;-73
2021/12/16 12:38:00;;;;;;;5.78;3.47;;;12.70;72.30;;;;;;5030451;28;20037;-72
2021/12/16 12:40:36;;;;;;;5.80;2.97;;;12.70;73.20;;;;;;5028504;28;20049;-72
2021/12/16 12:43:05;;;;;;;6.60;3.20;;;12.60;72.30;;;;;;5033205;28;20025;-73
2021/12/16 12:45:35;;;;;;;6.63;3.40;;;12.50;72.30;;;;;;5035643;28;20067;-73
2021/12/16 12:48:04;;;;;;;5.65;2.95;;;12.40;73.30;;;;;;5030295;28;20545;-72
2021/12/16 12:50:36;;;;;;;6.90;3.83;;;12.30;72.80;;;;;;5028510;28;20029;-73
2021/12/16 12:53:19;;;;;;;5.35;2.90;;;12.20;73.20;;;;;;5031674;28;20033;-73
2021/12/16 12:55:46;;;;;;;6.15;3.30;;;12.30;74.40;;;;;;5030513;28;20400;-73
2021/12/16 12:58:18;;;;;;;6.78;3.75;;;12.30;74.10;;;;;;5028573;28;20569;-73
2021/12/16 13:01:02;;;;;;;7.00;4.28;;;12.30;73.70;;;;;;5031333;28;20021;-73
2021/12/16 13:03:38;;;;;;;7.57;3.80;;;12.30;74.10;;;;;;5028519;28;20029;-73
2021/12/16 13:06:11;;;;;;;5.63;2.95;;;12.40;74.40;;;;;;5031104;28;20025;-73
2021/12/16 13:08:48;;;;;;;5.82;3.60;;;12.40;73.40;;;;;;5033414;28;20052;-73
2021/12/16 13:11:16;;;;;;;9.25;3.55;;;12.30;74.10;;;;;;5026542;28;20053;-73
2021/12/16 13:14:40;;;;;;;5.78;3.40;;;12.20;75.00;;;;;;5031189;28;20044;-73
2021/12/16 13:28:21;;;;;;;4.95;2.83;;;12.10;75.60;;;;;;5026896;28;20175;-73
2021/12/16 13:30:58;;;;;;;8.32;3.53;;;12.20;75.50;;;;;;5012024;28;20079;-72
2021/12/16 13:33:53;;;;;;;6.40;3.58;;;12.30;75.20;;;;;;5027961;28;20523;-73
2021/12/16 13:36:39;;;;;;;8.07;3.67;;;12.40;75.80;;;;;;5027435;28;20425;-73
2021/12/16 13:39:11;;;;;;;5.88;3.40;;;12.40;76.10;;;;;;5030973;28;20457;-73
2021/12/16 13:42:14;;;;;;;8.73;4.20;;;12.30;74.70;;;;;;5026108;28;20025;-73
2021/12/16 13:44:48;;;;;;;5.88;3.22;;;12.20;75.90;;;;;;5027085;28;20439;-72
2021/12/16 13:59:36;;;;;;;6.88;3.22;;;11.80;77.20;;;;;;5028539;28;20051;-73
2021/12/16 14:01:52;;;;;;;6.85;3.70;;;11.70;78.60;;;;;;5026786;28;20033;-73
2021/12/16 14:10:13;;;;;;;7.15;4.43;;;11.60;79.00;;;;;;5027579;28;20034;-69
2021/12/16 14:15:27;;;;;;;6.82;3.85;;;11.60;79.00;;;;;;5027128;28;20408;-74
2021/12/16 14:17:58;;;;;;;7.80;4.88;;;11.50;79.00;;;;;;5030295;28;20040;-73
2021/12/16 14:23:31;;;;;;;6.97;3.53;;;11.50;79.60;;;;;;5027136;28;20455;-75
2021/12/16 14:26:37;;;;;;;8.02;4.43;;;11.40;79.70;;;;;;5028388;28;20484;-74
2021/12/16 14:43:02;;;;;;;6.43;3.67;;;11.30;81.10;;;;;;5045274;28;19916;-74
2021/12/16 14:45:44;;;;;;;6.88;3.50;;;11.30;81.00;;;;;;5040977;28;20024;-74
2021/12/16 14:50:52;;;;;;;7.15;4.10;;;11.10;81.60;;;;;;5031569;28;20068;-74
2021/12/16 14:53:21;;;;;;;9.13;4.53;;;11.10;81.80;;;;;;5036052;28;20374;-74
2021/12/16 14:55:51;;;;;;;6.95;4.25;;;11.10;81.70;;;;;;5030292;28;20022;-74
2021/12/16 14:58:22;;;;;;;8.80;4.78;;;11.10;81.90;;;;;;5029684;28;20034;-74
2021/12/16 15:01:21;;;;;;;9.00;4.85;;;11.00;82.20;;;;;;5030152;28;20041;-74
2021/12/16 15:03:50;;;;;;;8.77;5.10;;;11.00;82.40;;;;;;5018313;28;20037;-74
2021/12/16 15:06:41;;;;;;;8.57;4.45;;;11.00;83.00;;;;;;5029618;28;20030;-74
2021/12/16 15:09:20;;;;;;;8.10;4.07;;;11.00;83.50;;;;;;5029463;28;20045;-74
2021/12/16 15:11:57;;;;;;;6.38;4.05;;;11.00;83.60;;;;;;5028661;28;20568;-74
2021/12/16 15:36:36;;;;;;;10.90;5.30;;;10.80;83.70;;;;;;5037500;28;20041;-72
2021/12/16 15:39:46;;;;;;;8.45;4.45;;;10.80;84.20;;;;;;5040436;28;20033;-72
2021/12/16 15:44:55;;;;;;;9.00;3.60;;;10.80;84.40;;;;;;5029098;28;20064;-72
2021/12/16 15:47:22;;;;;;;9.40;4.35;;;10.70;84.20;;;;;;5025900;28;20045;-71
2021/12/16 15:49:49;;;;;;;8.93;5.05;;;10.70;84.20;;;;;;5026493;28;20029;-72
2021/12/16 15:52:16;;;;;;;9.27;5.00;;;10.70;84.50;;;;;;5026107;28;20026;-71
2021/12/16 15:54:47;;;;;;;9.38;4.90;;;10.70;84.50;;;;;;5026859;28;20505;-72
2021/12/16 15:57:14;;;;;;;10.52;4.30;;;10.70;84.80;;;;;;5036349;28;20036;-72
2021/12/16 15:59:44;;;;;;;9.20;4.60;;;10.70;84.40;;;;;;5032940;28;20025;-72
2021/12/16 16:02:11;;;;;;;11.57;6.50;;;10.70;85.20;;;;;;5021217;28;20396;-72
2021/12/16 16:04:38;;;;;;;10.15;4.78;;;10.60;85.20;;;;;;5026557;28;20029;-72
2021/12/16 16:07:07;;;;;;;9.57;4.18;;;10.60;84.80;;;;;;5036088;28;20021;-71
2021/12/16 16:09:55;;;;;;;8.52;4.82;;;10.60;84.90;;;;;;5027012;28;20745;-71
2021/12/16 16:12:27;;;;;;;7.32;4.13;;;10.60;84.90;;;;;;5027885;28;20021;-72
2021/12/16 16:14:59;;;;;;;9.27;4.70;;;10.60;84.40;;;;;;5031653;28;20030;-72
2021/12/16 16:17:25;;;;;;;9.15;4.72;;;10.60;84.70;;;;;;5030903;28;20042;-72
2021/12/16 16:19:53;;;;;;;9.50;5.30;;;10.60;85.50;;;;;;5028662;28;20025;-72
2021/12/16 16:22:19;;;;;;;9.70;5.00;;;10.50;85.40;;;;;;5030518;28;20021;-72
2021/12/16 16:24:48;;;;;;;12.50;5.60;;;10.50;85.70;;;;;;5014621;28;20488;-71
2021/12/16 16:27:18;;;;;;;8.80;5.55;;;10.50;85.70;;;;;;5032237;28;20034;-72
2021/12/16 16:29:47;;;;;;;10.55;5.80;;;10.50;85.40;;;;;;5030870;28;20396;-71
2021/12/16 16:32:15;;;;;;;8.27;5.20;;;10.50;85.40;;;;;;5030060;28;20136;-72
2021/12/16 16:34:47;;;;;;;9.48;4.95;;;10.50;85.30;;;;;;5029320;28;20029;-72
2021/12/16 16:37:22;;;;;;;10.65;5.50;;;10.50;85.90;;;;;;5027343;28;20071;-72
2021/12/16 16:39:56;;;;;;;10.40;6.18;;;10.50;85.80;;;;;;5031593;28;20044;-72
2021/12/16 16:42:34;;;;;;;10.82;4.95;;;10.50;86.00;;;;;;5035065;28;20225;-73
2021/12/16 16:45:00;;;;;;;8.73;5.60;;;10.50;85.90;;;;;;5032845;28;20117;-73
2021/12/16 16:47:34;;;;;;;10.93;5.93;;;10.50;85.70;;;;;;5026590;28;20057;-72
2021/12/16 16:50:03;;;;;;;9.82;5.97;;;10.50;85.80;;;;;;5029370;28;20034;-73
2021/12/16 16:52:39;;;;;;;10.70;6.18;;;10.50;85.70;;;;;;5029083;28;20033;-72
2021/12/16 16:55:21;;;;;;;12.57;6.63;;;10.50;85.80;;;;;;5018368;28;20026;-72